sensor_id;sensor_type;location;lat;lon;timestamp;temperature;humidity
43665;DHT22;29263;48.172;11.484;2023-07-30T00:00:44;17.30;99.90
43665;DHT22;29263;48.172;11.484;2023-07-30T00:03:09;17.30;99.90
43665;DHT22;29263;48.172;11.484;2023-07-30T00:05:35;17.30;99.90
43665;DHT22;29263;48.172;11.484;2023-07-30T00:08:01;17.30;99.90
43665;DHT22;29263;48.172;11.484;2023-07-30T00:10:26;17.30;99.90
43665;DHT22;29263;48.172;11.484;2023-07-30T00:12:52;17.30;99.90
43665;DHT22;29263;48.172;11.484;2023-07-30T00:15:17;17.30;99.90
43665;DHT22;29263;48.172;11.484;2023-07-30T00:17:43;17.40;99.90
43665;DHT22;29263;48.172;11.484;2023-07-30T00:20:09;17.40;99.90
43665;DHT22;29263;48.172;11.484;2023-07-30T00:22:35;17.40;99.90
43665;DHT22;29263;48.172;11.484;2023-07-30T00:25:01;17.30;99.90
43665;DHT22;29263;48.172;11.484;2023-07-30T00:27:26;17.30;99.90
43665;DHT22;29263;48.172;11.484;2023-07-30T00:29:52;17.40;99.90
43665;DHT22;29263;48.172;11.484;2023-07-30T00:32:17;17.30;99.90
43665;DHT22;29263;48.172;11.484;2023-07-30T00:34:43;17.30;99.90
43665;DHT22;29263;48.172;11.484;2023-07-30T00:37:09;17.30;99.90
43665;DHT22;29263;48.172;11.484;2023-07-30T00:39:35;17.30;99.90
43665;DHT22;29263;48.172;11.484;2023-07-30T00:42:02;17.30;99.90
43665;DHT22;29263;48.172;11.484;2023-07-30T00:44:27;17.30;99.90
43665;DHT22;29263;48.172;11.484;2023-07-30T00:46:53;17.30;99.90
43665;DHT22;29263;48.172;11.484;2023-07-30T00:49:18;17.20;99.90
43665;DHT22;29263;48.172;11.484;2023-07-30T00:51:44;17.10;99.90
43665;DHT22;29263;48.172;11.484;2023-07-30T00:54:11;17.20;99.90
43665;DHT22;29263;48.172;11.484;2023-07-30T00:56:37;17.20;99.90
43665;DHT22;29263;48.172;11.484;2023-07-30T00:59:03;17.20;99.90
43665;DHT22;29263;48.172;11.484;2023-07-30T01:01:33;17.20;99.90
43665;DHT22;29263;48.172;11.484;2023-07-30T01:04:01;17.30;99.90
43665;DHT22;29263;48.172;11.484;2023-07-30T01:06:27;17.20;99.90
43665;DHT22;29263;48.172;11.484;2023-07-30T01:08:52;17.20;99.90
43665;DHT22;29263;48.172;11.484;2023-07-30T01:11:18;17.20;99.90
43665;DHT22;29263;48.172;11.484;2023-07-30T01:13:44;17.20;99.90
43665;DHT22;29263;48.172;11.484;2023-07-30T01:16:11;17.10;99.90
43665;DHT22;29263;48.172;11.484;2023-07-30T01:18:36;17.10;99.90
43665;DHT22;29263;48.172;11.484;2023-07-30T01:21:02;17.10;99.90
43665;DHT22;29263;48.172;11.484;2023-07-30T01:23:28;17.10;99.90
43665;DHT22;29263;48.172;11.484;2023-07-30T01:26:08;17.10;99.90
43665;DHT22;29263;48.172;11.484;2023-07-30T01:28:39;17.10;99.90
43665;DHT22;29263;48.172;11.484;2023-07-30T01:31:07;17.10;99.90
43665;DHT22;29263;48.172;11.484;2023-07-30T01:33:33;17.00;99.90
43665;DHT22;29263;48.172;11.484;2023-07-30T01:35:59;17.00;99.90
43665;DHT22;29263;48.172;11.484;2023-07-30T01:38:26;17.00;99.90
43665;DHT22;29263;48.172;11.484;2023-07-30T01:40:52;17.00;99.90
43665;DHT22;29263;48.172;11.484;2023-07-30T01:43:18;17.00;99.90
43665;DHT22;29263;48.172;11.484;2023-07-30T01:45:43;17.00;99.90
43665;DHT22;29263;48.172;11.484;2023-07-30T01:48:09;17.00;99.90
43665;DHT22;29263;48.172;11.484;2023-07-30T01:50:34;17.00;99.90
43665;DHT22;29263;48.172;11.484;2023-07-30T01:53:00;16.90;99.90
43665;DHT22;29263;48.172;11.484;2023-07-30T01:55:26;17.00;99.90
43665;DHT22;29263;48.172;11.484;2023-07-30T01:57:51;17.00;99.90
43665;DHT22;29263;48.172;11.484;2023-07-30T02:00:17;17.00;99.90
43665;DHT22;29263;48.172;11.484;2023-07-30T02:02:42;16.90;99.90
43665;DHT22;29263;48.172;11.484;2023-07-30T02:05:08;16.90;99.90
43665;DHT22;29263;48.172;11.484;2023-07-30T02:07:34;17.00;99.90
43665;DHT22;29263;48.172;11.484;2023-07-30T02:09:59;17.00;99.90
43665;DHT22;29263;48.172;11.484;2023-07-30T02:12:25;17.00;99.90
43665;DHT22;29263;48.172;11.484;2023-07-30T02:14:51;16.90;99.90
43665;DHT22;29263;48.172;11.484;2023-07-30T02:17:16;17.00;99.90
43665;DHT22;29263;48.172;11.484;2023-07-30T02:19:42;16.90;99.90
43665;DHT22;29263;48.172;11.484;2023-07-30T02:22:08;17.00;99.90
43665;DHT22;29263;48.172;11.484;2023-07-30T02:24:33;17.00;99.90
43665;DHT22;29263;48.172;11.484;2023-07-30T02:26:59;17.10;99.90
43665;DHT22;29263;48.172;11.484;2023-07-30T02:29:24;17.10;99.90
43665;DHT22;29263;48.172;11.484;2023-07-30T02:31:50;17.10;99.90
43665;DHT22;29263;48.172;11.484;2023-07-30T02:34:16;17.10;99.90
43665;DHT22;29263;48.172;11.484;2023-07-30T02:36:42;17.10;99.90
43665;DHT22;29263;48.172;11.484;2023-07-30T02:39:07;17.10;99.90
43665;DHT22;29263;48.172;11.484;2023-07-30T02:41:33;17.10;99.90
43665;DHT22;29263;48.172;11.484;2023-07-30T02:43:58;17.10;99.90
43665;DHT22;29263;48.172;11.484;2023-07-30T02:46:24;17.10;99.90
43665;DHT22;29263;48.172;11.484;2023-07-30T02:48:50;17.20;99.90
43665;DHT22;29263;48.172;11.484;2023-07-30T02:51:15;17.10;99.90
43665;DHT22;29263;48.172;11.484;2023-07-30T02:53:43;17.20;99.90
43665;DHT22;29263;48.172;11.484;2023-07-30T02:56:08;17.20;99.90
43665;DHT22;29263;48.172;11.484;2023-07-30T02:58:34;17.20;99.90
43665;DHT22;29263;48.172;11.484;2023-07-30T03:01:06;17.20;99.90
43665;DHT22;29263;48.172;11.484;2023-07-30T03:03:32;17.20;99.90
43665;DHT22;29263;48.172;11.484;2023-07-30T03:05:58;17.20;99.90
43665;DHT22;29263;48.172;11.484;2023-07-30T03:08:23;17.20;99.90
43665;DHT22;29263;48.172;11.484;2023-07-30T03:10:49;17.20;99.90
43665;DHT22;29263;48.172;11.484;2023-07-30T03:13:15;17.20;99.90
43665;DHT22;29263;48.172;11.484;2023-07-30T03:15:40;17.20;99.90
43665;DHT22;29263;48.172;11.484;2023-07-30T03:18:06;17.20;99.90
43665;DHT22;29263;48.172;11.484;2023-07-30T03:20:31;17.10;99.90
43665;DHT22;29263;48.172;11.484;2023-07-30T03:22:57;17.10;99.90
43665;DHT22;29263;48.172;11.484;2023-07-30T03:25:22;17.10;99.90
43665;DHT22;29263;48.172;11.484;2023-07-30T03:27:48;17.00;99.90
43665;DHT22;29263;48.172;11.484;2023-07-30T03:30:14;17.00;99.90
43665;DHT22;29263;48.172;11.484;2023-07-30T03:32:39;17.00;99.90
43665;DHT22;29263;48.172;11.484;2023-07-30T03:35:06;17.00;99.90
43665;DHT22;29263;48.172;11.484;2023-07-30T03:37:31;16.90;99.90
43665;DHT22;29263;48.172;11.484;2023-07-30T03:39:57;16.90;99.90
43665;DHT22;29263;48.172;11.484;2023-07-30T03:42:23;16.90;99.90
43665;DHT22;29263;48.172;11.484;2023-07-30T03:44:48;16.80;99.90
43665;DHT22;29263;48.172;11.484;2023-07-30T03:47:15;16.80;99.90
43665;DHT22;29263;48.172;11.484;2023-07-30T03:49:40;16.70;99.90
43665;DHT22;29263;48.172;11.484;2023-07-30T03:52:06;16.70;99.90
43665;DHT22;29263;48.172;11.484;2023-07-30T03:54:32;16.70;99.90
43665;DHT22;29263;48.172;11.484;2023-07-30T03:56:57;16.60;99.90
43665;DHT22;29263;48.172;11.484;2023-07-30T03:59:23;16.60;99.90
43665;DHT22;29263;48.172;11.484;2023-07-30T04:01:49;16.60;99.90
43665;DHT22;29263;48.172;11.484;2023-07-30T04:04:14;16.60;99.90
43665;DHT22;29263;48.172;11.484;2023-07-30T04:06:40;16.50;99.90
43665;DHT22;29263;48.172;11.484;2023-07-30T04:09:06;16.60;99.90
43665;DHT22;29263;48.172;11.484;2023-07-30T04:11:31;16.60;99.90
43665;DHT22;29263;48.172;11.484;2023-07-30T04:13:57;16.60;99.90
43665;DHT22;29263;48.172;11.484;2023-07-30T04:16:22;16.60;99.90
43665;DHT22;29263;48.172;11.484;2023-07-30T04:18:48;16.60;99.90
43665;DHT22;29263;48.172;11.484;2023-07-30T04:21:13;16.60;99.90
43665;DHT22;29263;48.172;11.484;2023-07-30T04:23:40;16.60;99.90
43665;DHT22;29263;48.172;11.484;2023-07-30T04:26:06;16.70;99.90
43665;DHT22;29263;48.172;11.484;2023-07-30T04:28:32;16.60;99.90
43665;DHT22;29263;48.172;11.484;2023-07-30T04:30:57;16.70;99.90
43665;DHT22;29263;48.172;11.484;2023-07-30T04:33:23;16.70;99.90
43665;DHT22;29263;48.172;11.484;2023-07-30T04:35:49;16.70;99.90
43665;DHT22;29263;48.172;11.484;2023-07-30T04:38:15;16.70;99.90
43665;DHT22;29263;48.172;11.484;2023-07-30T04:40:40;16.80;99.90
43665;DHT22;29263;48.172;11.484;2023-07-30T04:43:06;16.80;99.90
43665;DHT22;29263;48.172;11.484;2023-07-30T04:45:31;16.90;99.90
43665;DHT22;29263;48.172;11.484;2023-07-30T04:47:57;16.90;99.90
43665;DHT22;29263;48.172;11.484;2023-07-30T04:50:23;16.90;99.90
43665;DHT22;29263;48.172;11.484;2023-07-30T04:52:48;16.90;99.90
43665;DHT22;29263;48.172;11.484;2023-07-30T04:55:14;17.00;99.90
43665;DHT22;29263;48.172;11.484;2023-07-30T04:57:39;17.00;99.90
43665;DHT22;29263;48.172;11.484;2023-07-30T05:00:06;17.00;99.90
43665;DHT22;29263;48.172;11.484;2023-07-30T05:02:32;17.10;99.90
43665;DHT22;29263;48.172;11.484;2023-07-30T05:04:58;17.10;99.90
43665;DHT22;29263;48.172;11.484;2023-07-30T05:07:23;17.10;99.90
43665;DHT22;29263;48.172;11.484;2023-07-30T05:09:49;17.10;99.90
43665;DHT22;29263;48.172;11.484;2023-07-30T05:12:15;17.10;99.90
43665;DHT22;29263;48.172;11.484;2023-07-30T05:14:40;17.20;99.90
43665;DHT22;29263;48.172;11.484;2023-07-30T05:17:06;17.20;99.90
43665;DHT22;29263;48.172;11.484;2023-07-30T05:19:31;17.20;99.90
43665;DHT22;29263;48.172;11.484;2023-07-30T05:21:57;17.20;99.90
43665;DHT22;29263;48.172;11.484;2023-07-30T05:24:25;17.20;99.90
43665;DHT22;29263;48.172;11.484;2023-07-30T05:26:50;17.20;99.90
43665;DHT22;29263;48.172;11.484;2023-07-30T05:29:16;17.20;99.90
43665;DHT22;29263;48.172;11.484;2023-07-30T05:31:41;17.30;99.90
43665;DHT22;29263;48.172;11.484;2023-07-30T05:34:07;17.40;99.90
43665;DHT22;29263;48.172;11.484;2023-07-30T05:36:32;17.50;99.90
43665;DHT22;29263;48.172;11.484;2023-07-30T05:38:58;17.50;99.90
43665;DHT22;29263;48.172;11.484;2023-07-30T05:41:24;17.50;99.90
43665;DHT22;29263;48.172;11.484;2023-07-30T05:43:49;17.60;99.90
43665;DHT22;29263;48.172;11.484;2023-07-30T05:46:15;17.70;99.90
43665;DHT22;29263;48.172;11.484;2023-07-30T05:48:41;17.70;99.90
43665;DHT22;29263;48.172;11.484;2023-07-30T05:51:06;17.90;99.90
43665;DHT22;29263;48.172;11.484;2023-07-30T05:53:32;17.90;99.90
43665;DHT22;29263;48.172;11.484;2023-07-30T05:55:58;18.10;99.90
43665;DHT22;29263;48.172;11.484;2023-07-30T05:58:23;18.20;99.90
43665;DHT22;29263;48.172;11.484;2023-07-30T06:00:49;18.30;99.90
43665;DHT22;29263;48.172;11.484;2023-07-30T06:03:14;18.40;99.90
43665;DHT22;29263;48.172;11.484;2023-07-30T06:05:40;18.50;99.90
43665;DHT22;29263;48.172;11.484;2023-07-30T06:08:07;18.60;99.90
43665;DHT22;29263;48.172;11.484;2023-07-30T06:10:36;18.80;99.90
43665;DHT22;29263;48.172;11.484;2023-07-30T06:13:02;18.90;99.90
43665;DHT22;29263;48.172;11.484;2023-07-30T06:15:28;19.00;99.90
43665;DHT22;29263;48.172;11.484;2023-07-30T06:17:54;19.20;99.90
43665;DHT22;29263;48.172;11.484;2023-07-30T06:20:19;19.30;99.90
43665;DHT22;29263;48.172;11.484;2023-07-30T06:22:45;19.30;99.90
43665;DHT22;29263;48.172;11.484;2023-07-30T06:25:10;19.40;99.90
43665;DHT22;29263;48.172;11.484;2023-07-30T06:27:36;19.50;99.90
43665;DHT22;29263;48.172;11.484;2023-07-30T06:30:02;19.60;99.90
43665;DHT22;29263;48.172;11.484;2023-07-30T06:32:27;19.70;99.90
43665;DHT22;29263;48.172;11.484;2023-07-30T06:34:53;19.80;99.90
43665;DHT22;29263;48.172;11.484;2023-07-30T06:37:18;19.90;99.90
43665;DHT22;29263;48.172;11.484;2023-07-30T06:39:44;20.00;99.90
43665;DHT22;29263;48.172;11.484;2023-07-30T06:42:10;20.10;99.90
43665;DHT22;29263;48.172;11.484;2023-07-30T06:44:35;20.20;99.90
43665;DHT22;29263;48.172;11.484;2023-07-30T06:47:01;20.40;99.90
43665;DHT22;29263;48.172;11.484;2023-07-30T06:49:26;20.50;99.90
43665;DHT22;29263;48.172;11.484;2023-07-30T06:51:52;20.60;99.90
43665;DHT22;29263;48.172;11.484;2023-07-30T06:54:18;20.70;99.90
43665;DHT22;29263;48.172;11.484;2023-07-30T06:56:43;20.80;99.90
43665;DHT22;29263;48.172;11.484;2023-07-30T06:59:09;20.90;99.90
43665;DHT22;29263;48.172;11.484;2023-07-30T07:01:34;20.90;99.90
43665;DHT22;29263;48.172;11.484;2023-07-30T07:04:00;21.00;99.90
43665;DHT22;29263;48.172;11.484;2023-07-30T07:06:25;21.10;99.90
43665;DHT22;29263;48.172;11.484;2023-07-30T07:08:51;21.20;99.90
43665;DHT22;29263;48.172;11.484;2023-07-30T07:11:16;21.30;99.90
43665;DHT22;29263;48.172;11.484;2023-07-30T07:13:42;21.30;99.90
43665;DHT22;29263;48.172;11.484;2023-07-30T07:16:08;21.40;99.90
43665;DHT22;29263;48.172;11.484;2023-07-30T07:18:33;21.50;99.90
43665;DHT22;29263;48.172;11.484;2023-07-30T07:20:59;21.50;99.90
43665;DHT22;29263;48.172;11.484;2023-07-30T07:23:24;21.50;99.90
43665;DHT22;29263;48.172;11.484;2023-07-30T07:25:51;21.50;99.90
43665;DHT22;29263;48.172;11.484;2023-07-30T07:28:17;21.60;99.90
43665;DHT22;29263;48.172;11.484;2023-07-30T07:30:44;21.60;99.90
43665;DHT22;29263;48.172;11.484;2023-07-30T07:33:10;21.70;99.90
43665;DHT22;29263;48.172;11.484;2023-07-30T07:35:39;21.90;99.90
43665;DHT22;29263;48.172;11.484;2023-07-30T07:38:04;21.90;99.90
43665;DHT22;29263;48.172;11.484;2023-07-30T07:40:30;21.80;99.90
43665;DHT22;29263;48.172;11.484;2023-07-30T07:42:56;21.80;99.90
43665;DHT22;29263;48.172;11.484;2023-07-30T07:45:22;21.90;99.90
43665;DHT22;29263;48.172;11.484;2023-07-30T07:47:48;22.00;99.90
43665;DHT22;29263;48.172;11.484;2023-07-30T07:50:13;22.10;99.90
43665;DHT22;29263;48.172;11.484;2023-07-30T07:52:39;22.20;99.90
43665;DHT22;29263;48.172;11.484;2023-07-30T07:55:05;22.40;99.90
43665;DHT22;29263;48.172;11.484;2023-07-30T07:57:30;22.40;99.90
43665;DHT22;29263;48.172;11.484;2023-07-30T07:59:56;22.20;99.90
43665;DHT22;29263;48.172;11.484;2023-07-30T08:02:22;22.10;99.90
43665;DHT22;29263;48.172;11.484;2023-07-30T08:04:48;22.00;99.90
43665;DHT22;29263;48.172;11.484;2023-07-30T08:07:13;22.10;99.90
43665;DHT22;29263;48.172;11.484;2023-07-30T08:09:39;22.20;99.90
43665;DHT22;29263;48.172;11.484;2023-07-30T08:12:05;22.50;99.90
43665;DHT22;29263;48.172;11.484;2023-07-30T08:14:30;22.80;99.90
43665;DHT22;29263;48.172;11.484;2023-07-30T08:16:56;23.00;99.30
43665;DHT22;29263;48.172;11.484;2023-07-30T08:19:22;23.10;98.60
43665;DHT22;29263;48.172;11.484;2023-07-30T08:21:47;23.20;98.10
43665;DHT22;29263;48.172;11.484;2023-07-30T08:24:13;23.20;97.80
43665;DHT22;29263;48.172;11.484;2023-07-30T08:26:38;23.00;98.80
43665;DHT22;29263;48.172;11.484;2023-07-30T08:29:04;22.80;99.30
43665;DHT22;29263;48.172;11.484;2023-07-30T08:31:31;22.50;98.40
43665;DHT22;29263;48.172;11.484;2023-07-30T08:33:57;22.40;98.30
43665;DHT22;29263;48.172;11.484;2023-07-30T08:36:22;22.60;98.40
43665;DHT22;29263;48.172;11.484;2023-07-30T08:38:48;22.80;96.60
43665;DHT22;29263;48.172;11.484;2023-07-30T08:41:15;23.00;96.80
43665;DHT22;29263;48.172;11.484;2023-07-30T08:43:40;23.20;95.30
43665;DHT22;29263;48.172;11.484;2023-07-30T08:46:06;23.20;94.90
43665;DHT22;29263;48.172;11.484;2023-07-30T08:48:32;23.00;95.00
43665;DHT22;29263;48.172;11.484;2023-07-30T08:50:58;22.70;95.80
43665;DHT22;29263;48.172;11.484;2023-07-30T08:53:26;22.70;96.10
43665;DHT22;29263;48.172;11.484;2023-07-30T08:55:54;22.90;96.20
43665;DHT22;29263;48.172;11.484;2023-07-30T08:58:22;23.10;95.20
43665;DHT22;29263;48.172;11.484;2023-07-30T09:00:49;23.20;94.80
43665;DHT22;29263;48.172;11.484;2023-07-30T09:03:17;23.30;94.80
43665;DHT22;29263;48.172;11.484;2023-07-30T09:05:43;23.40;95.00
43665;DHT22;29263;48.172;11.484;2023-07-30T09:08:09;23.50;95.60
43665;DHT22;29263;48.172;11.484;2023-07-30T09:10:35;23.50;97.30
43665;DHT22;29263;48.172;11.484;2023-07-30T09:13:02;23.50;93.20
43665;DHT22;29263;48.172;11.484;2023-07-30T09:15:32;23.40;93.80
43665;DHT22;29263;48.172;11.484;2023-07-30T09:17:58;23.40;95.00
43665;DHT22;29263;48.172;11.484;2023-07-30T09:20:24;23.50;93.90
43665;DHT22;29263;48.172;11.484;2023-07-30T09:22:49;23.70;94.70
43665;DHT22;29263;48.172;11.484;2023-07-30T09:25:18;23.70;93.10
43665;DHT22;29263;48.172;11.484;2023-07-30T09:27:49;23.80;93.00
43665;DHT22;29263;48.172;11.484;2023-07-30T09:30:22;23.80;92.90
43665;DHT22;29263;48.172;11.484;2023-07-30T09:32:51;24.00;92.70
43665;DHT22;29263;48.172;11.484;2023-07-30T09:35:18;24.00;92.70
43665;DHT22;29263;48.172;11.484;2023-07-30T09:37:44;24.00;92.60
43665;DHT22;29263;48.172;11.484;2023-07-30T09:40:15;23.80;91.90
43665;DHT22;29263;48.172;11.484;2023-07-30T09:42:46;23.80;92.60
43665;DHT22;29263;48.172;11.484;2023-07-30T09:45:21;23.90;92.80
43665;DHT22;29263;48.172;11.484;2023-07-30T09:47:48;24.00;91.60
43665;DHT22;29263;48.172;11.484;2023-07-30T09:50:14;24.10;90.60
43665;DHT22;29263;48.172;11.484;2023-07-30T09:52:41;24.10;90.30
43665;DHT22;29263;48.172;11.484;2023-07-30T09:55:08;23.90;90.70
43665;DHT22;29263;48.172;11.484;2023-07-30T09:57:33;23.80;90.50
43665;DHT22;29263;48.172;11.484;2023-07-30T10:00:00;23.70;90.60
43665;DHT22;29263;48.172;11.484;2023-07-30T10:02:28;23.60;91.20
43665;DHT22;29263;48.172;11.484;2023-07-30T10:04:57;23.50;91.20
43665;DHT22;29263;48.172;11.484;2023-07-30T10:07:25;23.50;90.60
43665;DHT22;29263;48.172;11.484;2023-07-30T10:09:52;23.50;91.60
43665;DHT22;29263;48.172;11.484;2023-07-30T10:12:24;23.50;91.40
43665;DHT22;29263;48.172;11.484;2023-07-30T10:14:51;23.50;92.30
43665;DHT22;29263;48.172;11.484;2023-07-30T10:17:17;23.40;92.20
43665;DHT22;29263;48.172;11.484;2023-07-30T10:19:47;23.20;91.90
43665;DHT22;29263;48.172;11.484;2023-07-30T10:24:40;23.00;92.50
43665;DHT22;29263;48.172;11.484;2023-07-30T10:27:07;23.10;92.70
43665;DHT22;29263;48.172;11.484;2023-07-30T10:29:37;23.20;93.10
43665;DHT22;29263;48.172;11.484;2023-07-30T10:32:07;23.30;92.70
43665;DHT22;29263;48.172;11.484;2023-07-30T10:34:46;23.50;92.30
43665;DHT22;29263;48.172;11.484;2023-07-30T10:37:18;23.70;91.00
43665;DHT22;29263;48.172;11.484;2023-07-30T10:39:44;23.70;91.60
43665;DHT22;29263;48.172;11.484;2023-07-30T10:42:13;23.70;91.70
43665;DHT22;29263;48.172;11.484;2023-07-30T10:44:43;23.80;92.10
43665;DHT22;29263;48.172;11.484;2023-07-30T10:47:09;23.70;91.50
43665;DHT22;29263;48.172;11.484;2023-07-30T10:49:38;23.60;91.80
43665;DHT22;29263;48.172;11.484;2023-07-30T10:52:04;23.50;91.50
43665;DHT22;29263;48.172;11.484;2023-07-30T10:54:36;23.40;91.90
43665;DHT22;29263;48.172;11.484;2023-07-30T10:57:05;23.40;91.90
43665;DHT22;29263;48.172;11.484;2023-07-30T10:59:35;23.40;93.10
43665;DHT22;29263;48.172;11.484;2023-07-30T11:02:02;23.50;93.10
43665;DHT22;29263;48.172;11.484;2023-07-30T11:04:28;23.60;92.10
43665;DHT22;29263;48.172;11.484;2023-07-30T11:06:54;23.80;91.60
43665;DHT22;29263;48.172;11.484;2023-07-30T11:09:24;23.90;92.00
43665;DHT22;29263;48.172;11.484;2023-07-30T11:11:51;24.10;90.20
43665;DHT22;29263;48.172;11.484;2023-07-30T11:14:18;24.20;87.40
43665;DHT22;29263;48.172;11.484;2023-07-30T11:16:58;24.30;87.80
43665;DHT22;29263;48.172;11.484;2023-07-30T11:19:25;24.10;88.00
43665;DHT22;29263;48.172;11.484;2023-07-30T11:21:52;24.10;88.40
43665;DHT22;29263;48.172;11.484;2023-07-30T11:24:19;24.00;87.40
43665;DHT22;29263;48.172;11.484;2023-07-30T11:26:57;24.00;87.40
43665;DHT22;29263;48.172;11.484;2023-07-30T11:29:23;24.30;87.70
43665;DHT22;29263;48.172;11.484;2023-07-30T11:31:49;24.60;86.40
43665;DHT22;29263;48.172;11.484;2023-07-30T11:34:15;24.80;87.60
43665;DHT22;29263;48.172;11.484;2023-07-30T11:36:42;24.80;86.10
43665;DHT22;29263;48.172;11.484;2023-07-30T11:39:08;24.70;87.20
43665;DHT22;29263;48.172;11.484;2023-07-30T11:41:35;24.40;88.60
43665;DHT22;29263;48.172;11.484;2023-07-30T11:44:01;23.90;90.40
43665;DHT22;29263;48.172;11.484;2023-07-30T11:46:26;23.50;90.50
43665;DHT22;29263;48.172;11.484;2023-07-30T11:48:54;23.20;90.90
43665;DHT22;29263;48.172;11.484;2023-07-30T11:51:35;23.00;90.30
43665;DHT22;29263;48.172;11.484;2023-07-30T11:54:01;22.90;90.80
43665;DHT22;29263;48.172;11.484;2023-07-30T11:56:31;22.90;90.10
43665;DHT22;29263;48.172;11.484;2023-07-30T11:59:01;22.90;90.70
43665;DHT22;29263;48.172;11.484;2023-07-30T12:01:30;22.90;91.20
43665;DHT22;29263;48.172;11.484;2023-07-30T12:03:57;23.00;90.70
43665;DHT22;29263;48.172;11.484;2023-07-30T12:06:22;23.00;91.40
43665;DHT22;29263;48.172;11.484;2023-07-30T12:08:49;23.00;90.60
43665;DHT22;29263;48.172;11.484;2023-07-30T12:11:17;23.10;91.40
43665;DHT22;29263;48.172;11.484;2023-07-30T12:13:46;23.20;91.70
43665;DHT22;29263;48.172;11.484;2023-07-30T12:16:13;23.30;91.40
43665;DHT22;29263;48.172;11.484;2023-07-30T12:18:39;23.30;92.10
43665;DHT22;29263;48.172;11.484;2023-07-30T12:21:06;23.30;92.10
43665;DHT22;29263;48.172;11.484;2023-07-30T12:23:37;23.40;92.60
43665;DHT22;29263;48.172;11.484;2023-07-30T12:26:03;23.50;92.30
43665;DHT22;29263;48.172;11.484;2023-07-30T12:28:32;23.50;92.50
43665;DHT22;29263;48.172;11.484;2023-07-30T12:30:59;23.50;92.90
43665;DHT22;29263;48.172;11.484;2023-07-30T12:33:24;23.60;93.80
43665;DHT22;29263;48.172;11.484;2023-07-30T12:35:50;23.70;92.70
43665;DHT22;29263;48.172;11.484;2023-07-30T12:38:16;23.70;93.10
43665;DHT22;29263;48.172;11.484;2023-07-30T12:40:42;23.60;93.10
43665;DHT22;29263;48.172;11.484;2023-07-30T12:43:07;23.70;94.10
43665;DHT22;29263;48.172;11.484;2023-07-30T12:45:34;23.80;93.20
43665;DHT22;29263;48.172;11.484;2023-07-30T12:48:00;23.80;93.10
43665;DHT22;29263;48.172;11.484;2023-07-30T12:50:26;23.80;93.00
43665;DHT22;29263;48.172;11.484;2023-07-30T12:52:52;23.70;93.00
43665;DHT22;29263;48.172;11.484;2023-07-30T12:55:18;23.50;93.10
43665;DHT22;29263;48.172;11.484;2023-07-30T12:57:44;23.30;92.80
43665;DHT22;29263;48.172;11.484;2023-07-30T13:00:10;23.30;93.70
43665;DHT22;29263;48.172;11.484;2023-07-30T13:02:35;23.50;93.70
43665;DHT22;29263;48.172;11.484;2023-07-30T13:05:01;23.70;93.30
43665;DHT22;29263;48.172;11.484;2023-07-30T13:07:28;23.90;93.50
43665;DHT22;29263;48.172;11.484;2023-07-30T13:10:04;23.90;92.60
43665;DHT22;29263;48.172;11.484;2023-07-30T13:12:30;23.70;92.40
43665;DHT22;29263;48.172;11.484;2023-07-30T13:14:56;23.50;93.00
43665;DHT22;29263;48.172;11.484;2023-07-30T13:17:21;23.40;93.70
43665;DHT22;29263;48.172;11.484;2023-07-30T13:19:47;23.40;92.80
43665;DHT22;29263;48.172;11.484;2023-07-30T13:22:12;23.30;93.20
43665;DHT22;29263;48.172;11.484;2023-07-30T13:24:38;23.30;93.70
43665;DHT22;29263;48.172;11.484;2023-07-30T13:27:05;23.10;94.00
43665;DHT22;29263;48.172;11.484;2023-07-30T13:29:30;22.90;95.00
43665;DHT22;29263;48.172;11.484;2023-07-30T13:31:56;22.70;95.10
43665;DHT22;29263;48.172;11.484;2023-07-30T13:34:22;22.50;95.50
43665;DHT22;29263;48.172;11.484;2023-07-30T13:36:48;22.40;95.80
43665;DHT22;29263;48.172;11.484;2023-07-30T13:39:13;22.20;96.70
43665;DHT22;29263;48.172;11.484;2023-07-30T13:41:39;21.90;99.90
43665;DHT22;29263;48.172;11.484;2023-07-30T13:44:04;21.40;99.90
43665;DHT22;29263;48.172;11.484;2023-07-30T13:46:30;21.00;99.90
43665;DHT22;29263;48.172;11.484;2023-07-30T13:48:56;20.80;99.90
43665;DHT22;29263;48.172;11.484;2023-07-30T13:51:22;20.70;99.90
43665;DHT22;29263;48.172;11.484;2023-07-30T13:53:47;20.70;99.90
43665;DHT22;29263;48.172;11.484;2023-07-30T13:56:14;20.90;99.90
43665;DHT22;29263;48.172;11.484;2023-07-30T13:58:39;21.00;99.90
43665;DHT22;29263;48.172;11.484;2023-07-30T14:01:06;21.10;99.90
43665;DHT22;29263;48.172;11.484;2023-07-30T14:03:32;21.20;99.90
43665;DHT22;29263;48.172;11.484;2023-07-30T14:05:57;21.20;99.90
43665;DHT22;29263;48.172;11.484;2023-07-30T14:08:23;21.10;99.90
43665;DHT22;29263;48.172;11.484;2023-07-30T14:10:49;21.00;99.90
43665;DHT22;29263;48.172;11.484;2023-07-30T14:13:14;20.90;99.90
43665;DHT22;29263;48.172;11.484;2023-07-30T14:15:40;21.00;99.90
43665;DHT22;29263;48.172;11.484;2023-07-30T14:18:06;21.00;99.90
43665;DHT22;29263;48.172;11.484;2023-07-30T14:20:32;21.20;99.90
43665;DHT22;29263;48.172;11.484;2023-07-30T14:22:58;21.30;99.90
43665;DHT22;29263;48.172;11.484;2023-07-30T14:25:25;21.40;99.90
43665;DHT22;29263;48.172;11.484;2023-07-30T14:27:51;21.40;99.90
43665;DHT22;29263;48.172;11.484;2023-07-30T14:30:17;21.50;99.90
43665;DHT22;29263;48.172;11.484;2023-07-30T14:32:42;21.60;99.90
43665;DHT22;29263;48.172;11.484;2023-07-30T14:35:08;21.60;99.90
43665;DHT22;29263;48.172;11.484;2023-07-30T14:37:33;21.60;99.90
43665;DHT22;29263;48.172;11.484;2023-07-30T14:39:59;21.50;99.90
43665;DHT22;29263;48.172;11.484;2023-07-30T14:42:25;21.50;99.90
43665;DHT22;29263;48.172;11.484;2023-07-30T14:44:50;21.40;99.90
43665;DHT22;29263;48.172;11.484;2023-07-30T14:47:16;21.40;99.90
43665;DHT22;29263;48.172;11.484;2023-07-30T14:49:42;21.50;99.90
43665;DHT22;29263;48.172;11.484;2023-07-30T14:52:08;21.70;99.90
43665;DHT22;29263;48.172;11.484;2023-07-30T14:54:34;21.80;99.90
43665;DHT22;29263;48.172;11.484;2023-07-30T14:56:59;21.90;99.70
43665;DHT22;29263;48.172;11.484;2023-07-30T14:59:25;21.90;96.40
43665;DHT22;29263;48.172;11.484;2023-07-30T15:01:51;22.00;96.70
43665;DHT22;29263;48.172;11.484;2023-07-30T15:04:17;22.10;95.90
43665;DHT22;29263;48.172;11.484;2023-07-30T15:06:42;22.10;95.70
43665;DHT22;29263;48.172;11.484;2023-07-30T15:09:08;22.10;94.80
43665;DHT22;29263;48.172;11.484;2023-07-30T15:11:33;22.20;95.10